Charlesville, Minnesota
Current Conditions -  °F | °C
As of 6:36 PM on Tuesday 25 Nov 2014 (Local Time) from KETH Reporting Station
Broken Clouds Broken Clouds  
Wind Chill:   Ceiling: 9500
Heat Index: 21°   Visibility: 10mi
Dew Point: 18°   Wind: 13mph
Humidity: 86%   Direction: 110°ESE
Pressure: 29.91"   Gusts: NA
Location:  45.9787°N, 96.4182°W
Report Text: KETH 260036Z AUTO 11011KT 10SM BKN095 M06/M08 A2991 RMK AO2
Loading
Personal Weather Stations






























Interactive Weather Map New forecast layout! Learn more

10-Day Weather Forecast

Advertisements
Track Severe Weather on mobile